Time;durP1;ratioP1;P1;durP2;ratioP2;P2;SDS_P1;SDS_P2;PMS_P1;PMS_P2;Temp;Humidity;BMP_temperature;BMP_pressure;BME280_temperature;BME280_humidity;BME280_pressure;Samples;Min_cycle;Max_cycle;Signal;HPM_P1;HPM_P2
2022/05/16 00:02:13;;;;;;;15.25;6.20;;;28.60;95.30;;;;;;5087167;28;20288;-49
2022/05/16 00:04:43;;;;;;;12.25;5.65;;;28.60;95.30;;;;;;5087819;28;20217;-54
2022/05/16 00:07:10;;;;;;;14.70;5.47;;;28.60;95.30;;;;;;5087810;28;20134;-54
2022/05/16 00:09:37;;;;;;;15.55;5.35;;;28.60;95.40;;;;;;5087484;28;20204;-48
2022/05/16 00:12:05;;;;;;;12.63;5.30;;;28.60;95.40;;;;;;5087693;28;20028;-47
2022/05/16 00:14:32;;;;;;;13.48;5.28;;;28.60;95.50;;;;;;5087365;28;20081;-47
2022/05/16 00:16:59;;;;;;;12.95;5.57;;;28.50;95.60;;;;;;5087515;28;20031;-48
2022/05/16 00:19:25;;;;;;;14.88;6.18;;;28.50;95.60;;;;;;5087254;28;20291;-54
2022/05/16 00:21:52;;;;;;;15.88;6.22;;;28.50;95.60;;;;;;5087503;28;20028;-49
2022/05/16 00:24:24;;;;;;;14.38;5.82;;;28.50;95.60;;;;;;5086729;28;20182;-51
2022/05/16 00:26:50;;;;;;;14.55;6.70;;;28.50;95.60;;;;;;5087303;28;20029;-49
2022/05/16 00:29:21;;;;;;;14.75;7.20;;;28.50;95.50;;;;;;5086996;28;20039;-47
2022/05/16 00:31:48;;;;;;;14.00;6.70;;;28.50;95.40;;;;;;5087164;28;20032;-49
2022/05/16 00:34:15;;;;;;;12.15;5.65;;;28.50;95.40;;;;;;5086920;28;20020;-49
2022/05/16 00:36:47;;;;;;;13.32;5.65;;;28.50;95.40;;;;;;5087251;28;20070;-53
2022/05/16 00:39:18;;;;;;;12.77;5.68;;;28.50;95.50;;;;;;5086837;28;20024;-52
2022/05/16 00:41:46;;;;;;;9.32;4.90;;;28.50;95.50;;;;;;5087133;28;20032;-49
2022/05/16 00:44:13;;;;;;;13.30;5.50;;;28.40;95.50;;;;;;5086516;28;20031;-50
2022/05/16 00:46:40;;;;;;;11.30;5.20;;;28.40;95.60;;;;;;5087065;28;20297;-51
2022/05/16 00:49:16;;;;;;;9.95;5.18;;;28.40;95.60;;;;;;5086685;28;20020;-46
2022/05/16 00:51:49;;;;;;;12.00;4.88;;;28.40;95.50;;;;;;5086694;28;20040;-50
2022/05/16 00:54:26;;;;;;;14.50;4.70;;;28.40;95.60;;;;;;5096361;28;20112;-47
2022/05/16 00:56:58;;;;;;;23.40;6.30;;;28.40;95.60;;;;;;5095924;28;20024;-53
2022/05/16 00:59:35;;;;;;;19.75;5.97;;;28.30;95.70;;;;;;5086463;28;20020;-46
2022/05/16 01:04:49;;;;;;;12.93;7.53;;;28.30;95.80;;;;;;5086277;28;20088;-47
2022/05/16 01:07:28;;;;;;;20.70;7.65;;;28.20;95.80;;;;;;5086391;28;20066;-48
2022/05/16 01:09:54;;;;;;;16.95;6.18;;;28.20;95.90;;;;;;5086553;28;20062;-50
2022/05/16 01:12:29;;;;;;;19.45;6.35;;;28.10;95.90;;;;;;5086540;28;20040;-46
2022/05/16 01:14:57;;;;;;;16.20;5.65;;;28.10;95.90;;;;;;5086128;28;20021;-50
2022/05/16 01:17:24;;;;;;;14.48;4.95;;;28.00;95.90;;;;;;5086515;28;20032;-45
2022/05/16 01:19:52;;;;;;;11.68;3.90;;;28.00;96.10;;;;;;5086117;28;20224;-52
2022/05/16 01:22:43;;;;;;;9.20;3.88;;;28.00;96.00;;;;;;5086012;28;20028;-47
2022/05/16 01:25:18;;;;;;;14.37;4.17;;;28.00;96.10;;;;;;5085845;28;20019;-49
2022/05/16 01:27:52;;;;;;;11.25;4.28;;;27.90;96.20;;;;;;5086046;28;20067;-50
2022/05/16 01:30:23;;;;;;;16.67;4.57;;;27.90;96.20;;;;;;5085784;28;20036;-52
2022/05/16 01:32:50;;;;;;;12.15;4.18;;;27.90;96.00;;;;;;5085549;28;20327;-48
2022/05/16 01:35:25;;;;;;;10.45;4.07;;;27.90;96.00;;;;;;5085795;28;20051;-52
2022/05/16 01:40:38;;;;;;;16.25;3.97;;;27.90;96.00;;;;;;5085632;28;20024;-48
2022/05/16 01:43:05;;;;;;;11.50;3.78;;;27.90;95.90;;;;;;5085542;28;20023;-50
2022/05/16 01:45:33;;;;;;;15.00;4.40;;;27.90;95.90;;;;;;5085639;28;20016;-48
2022/05/16 01:47:59;;;;;;;13.38;4.45;;;27.90;95.90;;;;;;5085533;28;20320;-50
2022/05/16 01:50:26;;;;;;;12.02;3.97;;;27.90;95.80;;;;;;5085401;28;20217;-53
2022/05/16 01:52:53;;;;;;;17.77;4.25;;;27.90;95.70;;;;;;5085242;28;20259;-46
2022/05/16 01:55:19;;;;;;;11.07;4.57;;;27.80;95.80;;;;;;5087857;28;20021;-50
2022/05/16 01:57:46;;;;;;;12.15;4.45;;;27.80;96.00;;;;;;5088137;28;20016;-50
2022/05/16 02:00:14;;;;;;;9.57;4.00;;;27.80;96.00;;;;;;5105504;28;20024;-55
2022/05/16 02:02:42;;;;;;;9.85;3.97;;;27.80;96.00;;;;;;5095566;28;20055;-51
2022/05/16 02:05:12;;;;;;;10.02;3.90;;;27.80;95.90;;;;;;5085048;28;20198;-50
2022/05/16 02:07:39;;;;;;;14.95;4.30;;;27.80;96.00;;;;;;5084358;28;20031;-50
2022/05/16 02:10:07;;;;;;;16.35;4.70;;;27.80;96.10;;;;;;5085121;28;20013;-54
2022/05/16 02:12:35;;;;;;;17.00;4.78;;;27.80;96.20;;;;;;5085495;28;20033;-52
2022/05/16 02:15:04;;;;;;;15.73;4.30;;;27.80;96.20;;;;;;5084973;28;20208;-51
2022/05/16 02:17:30;;;;;;;9.07;4.40;;;27.80;96.20;;;;;;5085578;28;20024;-51
2022/05/16 02:19:57;;;;;;;11.25;4.22;;;27.80;96.20;;;;;;5084820;28;20024;-53
2022/05/16 02:25:08;;;;;;;13.98;4.40;;;27.80;96.20;;;;;;5084746;28;20209;-51
2022/05/16 02:27:36;;;;;;;10.82;4.60;;;27.80;96.20;;;;;;5084715;28;20267;-48
2022/05/16 02:30:04;;;;;;;11.90;4.30;;;27.70;96.20;;;;;;5084629;28;20075;-53
2022/05/16 02:32:31;;;;;;;13.15;4.20;;;27.70;96.20;;;;;;5085084;28;20083;-49
2022/05/16 02:34:57;;;;;;;10.07;3.67;;;27.70;96.30;;;;;;5084727;28;20035;-50
2022/05/16 02:37:24;;;;;;;12.70;3.80;;;27.70;96.40;;;;;;5084829;28;20067;-48
2022/05/16 02:39:51;;;;;;;11.40;4.07;;;27.70;96.30;;;;;;5084564;28;20300;-53
2022/05/16 02:42:17;;;;;;;11.10;3.78;;;27.70;96.30;;;;;;5084722;28;20099;-52
2022/05/16 02:44:45;;;;;;;9.20;3.90;;;27.70;96.40;;;;;;5091371;28;20030;-51
2022/05/16 02:47:14;;;;;;;12.77;3.88;;;27.70;96.30;;;;;;5089069;28;20024;-49
2022/05/16 02:49:41;;;;;;;14.20;3.72;;;27.70;96.20;;;;;;5084421;28;20320;-51
2022/05/16 02:52:08;;;;;;;9.02;3.13;;;27.70;96.20;;;;;;5084518;28;20069;-52
2022/05/16 02:54:35;;;;;;;9.82;3.40;;;27.80;96.10;;;;;;5084338;28;20386;-54
2022/05/16 02:57:03;;;;;;;9.75;2.92;;;27.80;96.00;;;;;;5084493;28;20099;-48
2022/05/16 02:59:33;;;;;;;10.98;3.72;;;27.80;96.10;;;;;;5084237;28;20020;-48
2022/05/16 03:02:01;;;;;;;8.38;3.03;;;27.80;96.00;;;;;;5083998;28;20048;-52
2022/05/16 03:04:28;;;;;;;12.48;3.08;;;27.70;96.20;;;;;;5083932;28;20038;-55
2022/05/16 03:06:55;;;;;;;11.75;3.10;;;27.80;96.00;;;;;;5084108;28;20266;-53
2022/05/16 03:09:23;;;;;;;12.02;3.28;;;27.80;96.00;;;;;;5084070;28;20019;-48
2022/05/16 03:11:50;;;;;;;12.90;3.13;;;27.80;95.90;;;;;;5084034;28;20048;-47
2022/05/16 03:14:16;;;;;;;13.93;3.45;;;27.80;95.80;;;;;;5084026;28;20213;-62
2022/05/16 03:16:43;;;;;;;13.13;3.40;;;27.80;95.80;;;;;;5084271;28;20312;-46
2022/05/16 03:19:10;;;;;;;12.38;3.50;;;27.80;95.90;;;;;;5083041;28;20156;-46
2022/05/16 03:21:37;;;;;;;9.98;3.42;;;27.80;95.90;;;;;;5084141;28;20087;-50
2022/05/16 03:24:04;;;;;;;7.65;2.67;;;27.80;95.90;;;;;;5088196;28;20048;-50
2022/05/16 03:26:31;;;;;;;10.88;2.88;;;27.80;95.90;;;;;;5097636;28;20091;-46
2022/05/16 03:28:57;;;;;;;9.93;3.22;;;27.70;95.80;;;;;;5085348;28;20020;-46
2022/05/16 03:31:24;;;;;;;10.80;3.33;;;27.80;95.90;;;;;;5083840;28;20028;-46
2022/05/16 03:33:51;;;;;;;10.68;3.30;;;27.80;95.90;;;;;;5095059;28;20046;-45
2022/05/16 03:36:17;;;;;;;13.32;3.28;;;27.80;95.90;;;;;;5083650;28;20047;-47
2022/05/16 03:41:29;;;;;;;10.95;3.40;;;27.70;95.70;;;;;;5084040;28;20331;-49
2022/05/16 03:43:56;;;;;;;11.02;3.08;;;27.80;95.80;;;;;;5083708;28;20044;-50
2022/05/16 03:46:24;;;;;;;12.13;3.60;;;27.80;95.80;;;;;;5083694;28;20182;-50
2022/05/16 03:48:50;;;;;;;9.13;3.63;;;27.80;95.80;;;;;;5082000;28;20020;-50
2022/05/16 03:51:19;;;;;;;10.07;3.08;;;27.80;95.80;;;;;;5082799;28;20020;-51
2022/05/16 03:53:48;;;;;;;8.40;3.35;;;27.70;95.80;;;;;;5093611;28;20027;-51
2022/05/16 03:56:17;;;;;;;10.82;3.08;;;27.80;95.90;;;;;;5083860;28;20032;-45
2022/05/16 03:58:43;;;;;;;10.15;3.22;;;27.80;95.90;;;;;;5083716;28;20046;-45
2022/05/16 04:01:11;;;;;;;14.35;3.55;;;27.80;95.80;;;;;;5084734;28;20048;-49
2022/05/16 04:03:38;;;;;;;15.10;3.40;;;27.80;95.90;;;;;;5103946;28;20166;-52
2022/05/16 04:06:05;;;;;;;11.25;2.97;;;27.80;95.90;;;;;;5104271;28;20024;-47
2022/05/16 04:08:32;;;;;;;16.65;3.58;;;27.80;95.90;;;;;;5104160;28;20146;-53
2022/05/16 04:11:00;;;;;;;13.45;3.50;;;27.70;95.90;;;;;;5103762;28;20020;-47
2022/05/16 04:13:27;;;;;;;9.38;3.05;;;27.70;95.90;;;;;;5104415;28;20019;-46
2022/05/16 04:15:54;;;;;;;11.13;3.25;;;27.70;95.90;;;;;;5102820;28;20117;-46
2022/05/16 04:18:21;;;;;;;11.18;3.08;;;27.70;95.80;;;;;;5104489;28;20019;-47
2022/05/16 04:20:48;;;;;;;12.40;3.35;;;27.70;95.70;;;;;;5104241;28;20028;-50
2022/05/16 04:23:14;;;;;;;11.32;2.88;;;27.70;95.70;;;;;;5103957;28;20019;-50
2022/05/16 04:25:41;;;;;;;15.20;3.47;;;27.70;95.60;;;;;;5104274;28;20016;-46
2022/05/16 04:28:09;;;;;;;13.43;3.00;;;27.70;95.70;;;;;;5104196;28;20207;-47
2022/05/16 04:30:37;;;;;;;12.05;2.97;;;27.60;95.60;;;;;;5105724;28;20024;-48
2022/05/16 04:33:04;;;;;;;17.13;3.38;;;27.70;95.50;;;;;;5107738;28;20260;-55
2022/05/16 04:35:31;;;;;;;18.20;8.38;;;27.70;95.40;;;;;;5107941;28;20012;-45
2022/05/16 04:37:58;;;;;;;17.60;5.40;;;27.70;95.40;;;;;;5107734;28;20076;-46
2022/05/16 04:40:25;;;;;;;13.25;4.45;;;27.70;95.30;;;;;;5107824;28;20023;-53
2022/05/16 04:42:52;;;;;;;16.08;9.38;;;27.60;95.20;;;;;;5107800;28;20036;-47
2022/05/16 04:45:21;;;;;;;20.40;14.40;;;27.70;95.20;;;;;;5107408;28;20024;-46
2022/05/16 04:47:53;;;;;;;32.00;24.63;;;27.60;95.20;;;;;;5107561;28;20257;-45
2022/05/16 04:50:24;;;;;;;23.17;16.67;;;27.60;95.10;;;;;;5107618;28;20024;-48
2022/05/16 04:52:51;;;;;;;24.83;12.95;;;27.60;95.00;;;;;;5107605;28;20078;-49
2022/05/16 04:55:18;;;;;;;17.13;9.35;;;27.60;94.80;;;;;;5107498;28;20296;-46
2022/05/16 04:57:45;;;;;;;18.23;8.88;;;27.60;94.90;;;;;;5107447;28;20024;-45
2022/05/16 05:00:13;;;;;;;14.23;8.35;;;27.60;94.70;;;;;;5107334;28;20511;-47
2022/05/16 05:02:40;;;;;;;20.67;8.13;;;27.50;94.80;;;;;;5107274;28;20059;-46
2022/05/16 05:05:08;;;;;;;11.30;6.00;;;27.60;94.80;;;;;;5107185;28;20022;-46
2022/05/16 05:07:37;;;;;;;16.88;5.78;;;27.60;94.80;;;;;;5107334;28;20032;-49
2022/05/16 05:15:36;;;;;;;16.60;4.10;;;27.50;94.90;;;;;;5106698;28;20330;-49
2022/05/16 05:18:03;;;;;;;11.85;3.53;;;27.50;94.90;;;;;;5106383;28;20020;-51
2022/05/16 05:20:32;;;;;;;9.80;3.08;;;27.50;94.70;;;;;;5106539;28;20040;-51
2022/05/16 05:23:00;;;;;;;13.80;2.65;;;27.50;94.70;;;;;;5106327;28;20024;-48
2022/05/16 05:25:27;;;;;;;11.02;3.33;;;27.50;94.60;;;;;;5106667;28;20143;-49
2022/05/16 05:27:54;;;;;;;13.45;3.00;;;27.40;94.50;;;;;;5106365;28;20304;-49
2022/05/16 05:30:25;;;;;;;9.82;3.28;;;27.40;94.30;;;;;;5106268;28;20033;-54
2022/05/16 05:32:53;;;;;;;17.58;3.33;;;27.40;94.20;;;;;;5106243;28;20044;-48
2022/05/16 05:35:20;;;;;;;13.13;3.45;;;27.40;94.20;;;;;;5106137;28;20027;-56
2022/05/16 05:37:47;;;;;;;11.18;3.05;;;27.40;94.20;;;;;;5106003;28;20053;-45
2022/05/16 05:40:15;;;;;;;12.85;2.63;;;27.40;94.10;;;;;;5106156;28;20028;-49
2022/05/16 05:42:42;;;;;;;12.00;2.85;;;27.40;94.10;;;;;;5105333;28;20023;-51
2022/05/16 05:45:10;;;;;;;12.18;2.97;;;27.40;94.00;;;;;;5105818;28;20073;-48
2022/05/16 05:47:36;;;;;;;12.73;2.67;;;27.40;94.10;;;;;;5106502;28;20066;-48
2022/05/16 05:50:04;;;;;;;10.90;2.70;;;27.40;94.10;;;;;;5105928;28;20023;-50
2022/05/16 05:52:32;;;;;;;9.82;2.60;;;27.40;94.10;;;;;;5106346;28;20020;-49
2022/05/16 05:54:58;;;;;;;14.63;2.63;;;27.40;94.10;;;;;;5105808;28;20046;-46
2022/05/16 05:57:26;;;;;;;20.20;3.00;;;27.40;94.10;;;;;;5106281;28;20190;-48
2022/05/16 05:59:53;;;;;;;10.20;2.72;;;27.30;94.10;;;;;;5105707;28;20057;-47
2022/05/16 06:02:21;;;;;;;8.52;3.08;;;27.30;94.10;;;;;;5105665;28;20048;-49
2022/05/16 06:04:48;;;;;;;9.57;3.25;;;27.40;94.20;;;;;;5105594;28;20335;-47
2022/05/16 06:07:15;;;;;;;14.50;3.33;;;27.30;94.20;;;;;;5105966;28;20027;-48
2022/05/16 06:09:42;;;;;;;12.38;3.33;;;27.30;94.20;;;;;;5105553;28;20058;-49
2022/05/16 06:12:10;;;;;;;9.23;2.50;;;27.30;94.30;;;;;;5105905;28;20304;-49
2022/05/16 06:14:37;;;;;;;9.85;3.17;;;27.30;94.30;;;;;;5105588;28;20058;-46
2022/05/16 06:17:05;;;;;;;10.88;3.25;;;27.30;94.30;;;;;;5105792;28;20030;-47
2022/05/16 06:19:31;;;;;;;10.55;3.50;;;27.30;94.40;;;;;;5105303;28;20089;-55
2022/05/16 06:21:58;;;;;;;10.40;3.00;;;27.30;94.40;;;;;;5105638;28;20028;-53
2022/05/16 06:27:10;;;;;;;7.97;2.85;;;27.30;94.50;;;;;;5105179;28;20031;-45
2022/05/16 06:29:36;;;;;;;11.50;3.28;;;27.30;94.50;;;;;;5105071;28;20020;-47
2022/05/16 06:32:03;;;;;;;13.35;3.50;;;27.30;94.50;;;;;;5105510;28;20031;-50
2022/05/16 06:34:29;;;;;;;10.43;2.88;;;27.30;94.50;;;;;;5105070;28;20027;-53
2022/05/16 06:36:56;;;;;;;9.40;3.00;;;27.30;94.50;;;;;;5105225;28;20027;-51
2022/05/16 06:39:23;;;;;;;11.52;3.33;;;27.30;94.50;;;;;;5104955;28;20019;-48
2022/05/16 06:41:49;;;;;;;9.25;3.28;;;27.30;94.50;;;;;;5105224;28;20216;-46
2022/05/16 06:44:19;;;;;;;8.45;3.05;;;27.30;94.50;;;;;;5104713;28;20024;-47
2022/05/16 06:46:45;;;;;;;13.32;3.55;;;27.30;94.40;;;;;;5105133;28;20089;-48
2022/05/16 06:49:12;;;;;;;11.10;2.80;;;27.30;94.40;;;;;;5104870;28;20043;-45
2022/05/16 06:51:40;;;;;;;12.20;3.00;;;27.30;94.40;;;;;;5104930;28;20316;-54
2022/05/16 06:54:07;;;;;;;14.75;3.28;;;27.30;94.40;;;;;;5104557;28;20104;-54
2022/05/16 06:56:34;;;;;;;12.57;3.40;;;27.30;94.50;;;;;;5104927;28;20316;-48
2022/05/16 06:59:00;;;;;;;14.52;3.45;;;27.30;94.60;;;;;;5104528;28;20320;-48
2022/05/16 07:01:27;;;;;;;10.18;3.03;;;27.30;94.60;;;;;;5104678;28;20055;-51
2022/05/16 07:03:53;;;;;;;9.10;3.13;;;27.30;94.60;;;;;;5095303;28;20197;-54
2022/05/16 07:06:20;;;;;;;14.90;3.40;;;27.30;94.60;;;;;;5087069;28;20024;-53
2022/05/16 07:08:46;;;;;;;12.88;3.88;;;27.30;94.70;;;;;;5084228;28;20020;-45
2022/05/16 07:11:14;;;;;;;8.80;3.10;;;27.30;94.70;;;;;;5084104;28;20028;-47
2022/05/16 07:13:40;;;;;;;12.85;3.70;;;27.30;94.60;;;;;;5084087;28;20391;-46
2022/05/16 07:16:07;;;;;;;10.60;3.70;;;27.30;94.70;;;;;;5084289;28;20032;-46
2022/05/16 07:18:34;;;;;;;9.02;3.85;;;27.30;94.70;;;;;;5084214;28;20024;-45
2022/05/16 07:21:01;;;;;;;12.30;3.65;;;27.30;94.70;;;;;;5084018;28;20076;-47
2022/05/16 07:23:27;;;;;;;10.98;3.33;;;27.30;94.60;;;;;;5083886;28;20373;-47
2022/05/16 07:28:39;;;;;;;10.30;3.55;;;27.20;94.70;;;;;;5083983;28;20095;-48
2022/05/16 07:31:06;;;;;;;17.33;2.80;;;27.30;94.80;;;;;;5084137;28;20245;-51
2022/05/16 07:33:34;;;;;;;11.63;3.28;;;27.20;94.80;;;;;;5083905;28;20027;-47
2022/05/16 07:36:00;;;;;;;13.20;3.10;;;27.20;94.70;;;;;;5083980;28;20036;-47
2022/05/16 07:38:27;;;;;;;11.10;3.22;;;27.20;94.70;;;;;;5083864;28;20021;-54
2022/05/16 07:40:55;;;;;;;13.25;3.05;;;27.20;94.80;;;;;;5083894;28;20032;-51
2022/05/16 07:43:22;;;;;;;15.38;3.35;;;27.20;94.80;;;;;;5083996;28;20020;-46
2022/05/16 07:45:48;;;;;;;9.50;3.13;;;27.20;94.70;;;;;;5083965;28;20031;-50
2022/05/16 07:48:15;;;;;;;13.02;4.07;;;27.20;94.60;;;;;;5083798;28;20020;-47
2022/05/16 07:50:44;;;;;;;11.63;3.38;;;27.20;94.60;;;;;;5084066;28;20097;-51
2022/05/16 07:53:12;;;;;;;10.70;3.65;;;27.20;94.60;;;;;;5084007;28;20420;-47
2022/05/16 07:55:49;;;;;;;13.15;2.60;;;27.20;94.50;;;;;;5083513;28;20028;-49
2022/05/16 07:58:16;;;;;;;11.30;3.13;;;27.20;94.50;;;;;;5083822;28;20264;-48
2022/05/16 08:00:43;;;;;;;12.70;3.10;;;27.20;94.80;;;;;;5083947;28;20243;-54
2022/05/16 08:03:12;;;;;;;11.18;2.97;;;27.20;94.40;;;;;;5083348;28;20099;-47
2022/05/16 08:05:40;;;;;;;10.00;2.60;;;27.20;94.40;;;;;;5086008;28;20204;-51
2022/05/16 08:10:51;;;;;;;9.85;2.78;;;27.20;94.40;;;;;;5087666;28;20023;-51
2022/05/16 08:13:18;;;;;;;11.02;2.65;;;27.20;94.30;;;;;;5087599;28;20332;-49
2022/05/16 08:15:45;;;;;;;11.70;2.80;;;27.20;94.30;;;;;;5087444;28;20095;-55
2022/05/16 08:18:12;;;;;;;16.02;2.78;;;27.20;94.30;;;;;;5087488;28;20304;-52
2022/05/16 08:20:42;;;;;;;14.27;2.67;;;27.20;94.20;;;;;;5087480;28;20074;-48
2022/05/16 08:23:11;;;;;;;10.88;2.78;;;27.10;94.20;;;;;;5087066;28;20217;-46
2022/05/16 08:25:38;;;;;;;13.52;3.05;;;27.20;94.10;;;;;;5087253;28;20024;-48
2022/05/16 08:28:06;;;;;;;10.85;2.65;;;27.20;94.10;;;;;;5087132;28;20012;-50
2022/05/16 08:30:33;;;;;;;13.32;2.83;;;27.10;94.10;;;;;;5087051;28;20242;-49
2022/05/16 08:33:01;;;;;;;10.60;2.53;;;27.20;94.10;;;;;;5087078;28;20066;-48
2022/05/16 08:35:28;;;;;;;8.43;2.42;;;27.10;94.10;;;;;;5087321;28;20305;-52
2022/05/16 08:41:04;;;;;;;13.48;3.03;;;27.10;94.00;;;;;;5086933;28;20035;-51
2022/05/16 08:43:52;;;;;;;9.32;3.10;;;27.10;94.00;;;;;;5086920;28;20012;-53
2022/05/16 08:46:38;;;;;;;15.13;3.05;;;27.10;94.00;;;;;;5086955;28;20024;-48
2022/05/16 08:49:25;;;;;;;12.27;2.90;;;27.10;94.00;;;;;;5086914;28;20027;-52
2022/05/16 08:51:58;;;;;;;9.50;3.00;;;27.10;94.00;;;;;;5046284;28;20036;-49
2022/05/16 08:54:42;;;;;;;9.90;2.88;;;27.10;93.90;;;;;;5086720;28;20028;-46
2022/05/16 08:57:13;;;;;;;10.10;2.63;;;27.10;93.80;;;;;;5087141;28;20031;-47
2022/05/16 08:59:43;;;;;;;13.70;3.00;;;27.10;93.80;;;;;;5086659;28;20017;-45
2022/05/16 09:02:22;;;;;;;8.18;2.60;;;27.10;93.70;;;;;;5086358;28;20400;-51
2022/05/16 09:05:00;;;;;;;13.10;2.65;;;27.10;93.60;;;;;;5086419;28;20029;-53
2022/05/16 09:07:36;;;;;;;11.23;2.67;;;27.10;93.50;;;;;;5086840;28;20031;-49
2022/05/16 09:10:18;;;;;;;11.35;2.50;;;27.10;93.40;;;;;;5086458;28;20046;-47
2022/05/16 09:13:10;;;;;;;10.30;2.80;;;27.10;93.30;;;;;;5086482;28;20031;-53
2022/05/16 09:16:02;;;;;;;12.70;2.47;;;27.00;93.20;;;;;;5085919;28;20090;-51
2022/05/16 09:18:47;;;;;;;14.05;2.42;;;27.10;93.10;;;;;;5086097;28;20019;-51
2022/05/16 09:21:30;;;;;;;9.02;2.42;;;27.00;93.10;;;;;;5086466;28;20032;-47
2022/05/16 09:24:15;;;;;;;8.80;2.33;;;27.10;93.10;;;;;;5086049;28;20025;-49
2022/05/16 09:26:47;;;;;;;9.82;2.33;;;27.00;93.00;;;;;;5086442;28;20216;-51
2022/05/16 09:29:23;;;;;;;9.63;2.42;;;27.00;92.90;;;;;;5086219;28;20039;-48
2022/05/16 09:31:53;;;;;;;10.88;2.10;;;27.00;92.90;;;;;;5086507;28;20048;-47
2022/05/16 09:34:20;;;;;;;11.68;2.78;;;27.00;92.90;;;;;;5085994;28;20031;-48
2022/05/16 09:36:51;;;;;;;7.75;2.67;;;27.00;92.80;;;;;;5086160;28;20024;-49
2022/05/16 09:39:21;;;;;;;8.30;2.45;;;27.00;92.80;;;;;;5085933;28;20020;-45
2022/05/16 09:42:11;;;;;;;10.65;2.60;;;27.00;92.70;;;;;;5086217;28;20372;-50
2022/05/16 09:45:13;;;;;;;10.38;2.30;;;27.00;92.60;;;;;;5085745;28;20032;-50
2022/05/16 09:47:42;;;;;;;9.52;2.58;;;27.00;92.70;;;;;;5072304;28;20077;-50
2022/05/16 09:50:23;;;;;;;13.95;2.60;;;27.00;92.60;;;;;;5085668;28;20079;-47
2022/05/16 09:53:09;;;;;;;9.18;2.40;;;27.00;92.60;;;;;;5085618;28;20365;-47
2022/05/16 09:55:56;;;;;;;10.82;2.63;;;27.00;92.60;;;;;;5085816;28;20312;-52
2022/05/16 09:58:54;;;;;;;9.80;2.50;;;27.00;92.60;;;;;;5085572;28;20016;-49
2022/05/16 10:01:49;;;;;;;10.40;2.42;;;27.00;92.50;;;;;;5085281;28;20260;-50
2022/05/16 10:04:17;;;;;;;9.85;2.58;;;26.90;92.50;;;;;;5085227;28;20035;-49
2022/05/16 10:07:00;;;;;;;9.57;2.53;;;26.90;92.60;;;;;;5085761;28;20070;-48
2022/05/16 10:09:31;;;;;;;9.30;2.85;;;26.90;92.50;;;;;;5085135;28;20022;-52
2022/05/16 10:11:58;;;;;;;8.25;2.50;;;26.90;92.40;;;;;;5085695;28;20050;-47
2022/05/16 10:14:24;;;;;;;13.90;2.75;;;26.90;92.40;;;;;;5085312;28;20020;-50
2022/05/16 10:16:53;;;;;;;10.20;2.75;;;26.90;92.50;;;;;;5085402;28;20232;-46
2022/05/16 10:19:29;;;;;;;10.10;2.97;;;26.90;92.50;;;;;;5085097;28;20048;-54
2022/05/16 10:22:15;;;;;;;15.90;3.05;;;26.90;92.40;;;;;;5085413;28;20324;-49
2022/05/16 10:24:49;;;;;;;9.40;2.80;;;26.90;92.40;;;;;;5084785;28;20039;-45
2022/05/16 10:27:19;;;;;;;14.13;3.10;;;26.90;92.30;;;;;;5084268;28;20104;-46
2022/05/16 10:29:48;;;;;;;9.25;3.13;;;26.90;92.30;;;;;;5085198;28;20023;-48
2022/05/16 10:35:30;;;;;;;12.25;3.30;;;26.90;92.30;;;;;;5057817;28;20028;-47
2022/05/16 10:38:01;;;;;;;11.52;3.05;;;26.90;92.30;;;;;;5084538;28;20024;-46
2022/05/16 10:40:30;;;;;;;16.27;4.03;;;26.90;92.20;;;;;;5084482;28;20309;-47
2022/05/16 10:43:15;;;;;;;26.80;5.20;;;26.90;92.20;;;;;;5083788;28;20024;-46
2022/05/16 10:45:47;;;;;;;36.88;6.22;;;26.90;92.30;;;;;;5084752;28;20031;-50
2022/05/16 10:48:41;;;;;;;24.83;4.80;;;26.90;92.30;;;;;;5084997;28;20017;-46
2022/05/16 10:51:15;;;;;;;22.58;4.78;;;26.90;92.30;;;;;;5084575;28;20316;-47
2022/05/16 10:54:06;;;;;;;21.75;4.53;;;26.90;92.30;;;;;;5084322;28;20031;-50
2022/05/16 10:57:07;;;;;;;17.05;4.43;;;26.90;92.30;;;;;;5084681;28;20083;-50
2022/05/16 10:59:58;;;;;;;17.88;4.43;;;26.90;92.40;;;;;;5084262;28;20024;-50
2022/05/16 11:02:46;;;;;;;15.95;4.47;;;26.90;92.40;;;;;;5084143;28;20079;-48
2022/05/16 11:05:42;;;;;;;15.15;4.82;;;26.90;92.40;;;;;;5084270;28;20029;-52
2022/05/16 11:08:18;;;;;;;13.52;4.10;;;26.90;92.60;;;;;;5084165;28;20248;-50
2022/05/16 11:11:08;;;;;;;12.45;3.97;;;26.90;92.70;;;;;;5084047;28;20036;-46
2022/05/16 11:13:47;;;;;;;17.02;4.05;;;27.00;92.80;;;;;;5083933;28;20317;-46
2022/05/16 11:16:27;;;;;;;30.77;5.15;;;27.00;92.80;;;;;;5084281;28;20320;-48
2022/05/16 11:19:18;;;;;;;19.80;4.40;;;27.00;92.80;;;;;;5083944;28;20046;-49
2022/05/16 11:22:04;;;;;;;12.77;3.63;;;27.10;92.70;;;;;;5084397;28;20012;-46
2022/05/16 11:24:42;;;;;;;13.02;3.67;;;27.30;92.50;;;;;;5083847;28;20056;-52
2022/05/16 11:27:19;;;;;;;18.00;2.97;;;27.40;92.30;;;;;;5084337;28;20016;-49
2022/05/16 11:30:15;;;;;;;19.40;4.10;;;27.50;92.10;;;;;;5083829;28;20277;-51
2022/05/16 11:33:10;;;;;;;12.75;3.47;;;27.50;92.20;;;;;;5082089;28;20047;-50
2022/05/16 11:35:47;;;;;;;14.27;3.13;;;27.60;92.40;;;;;;5041314;28;20028;-51
2022/05/16 11:38:33;;;;;;;13.27;3.13;;;27.50;92.40;;;;;;5082195;28;20126;-53
2022/05/16 11:41:15;;;;;;;8.45;2.97;;;27.50;92.40;;;;;;5081718;28;20016;-53
2022/05/16 11:43:48;;;;;;;11.15;3.35;;;27.50;92.40;;;;;;5082051;28;20066;-50
2022/05/16 11:46:24;;;;;;;13.00;3.38;;;27.60;92.40;;;;;;5083256;28;20021;-50
2022/05/16 11:49:12;;;;;;;9.63;3.45;;;27.60;92.30;;;;;;5084035;28;20025;-48
2022/05/16 11:51:43;;;;;;;9.07;3.80;;;27.60;92.40;;;;;;5083969;28;20008;-50
2022/05/16 11:54:14;;;;;;;9.65;3.75;;;27.60;92.50;;;;;;5083799;28;20051;-49
2022/05/16 12:02:28;;;;;;;17.15;4.45;;;27.70;92.30;;;;;;5083571;28;20048;-47
2022/05/16 12:05:09;;;;;;;12.88;4.57;;;27.70;92.50;;;;;;5083537;28;20042;-49
2022/05/16 12:07:36;;;;;;;12.00;4.03;;;27.70;92.50;;;;;;5084177;28;20079;-46
2022/05/16 12:10:27;;;;;;;14.32;3.80;;;27.80;92.70;;;;;;5083712;28;20329;-47
2022/05/16 12:13:27;;;;;;;10.90;3.60;;;27.80;92.50;;;;;;5083599;28;20087;-50
2022/05/16 12:16:13;;;;;;;10.52;3.10;;;27.80;92.50;;;;;;5083453;28;20017;-52
2022/05/16 12:19:15;;;;;;;14.43;3.60;;;27.80;92.50;;;;;;5083602;28;20083;-53
2022/05/16 12:21:42;;;;;;;12.93;3.53;;;27.80;92.50;;;;;;5070470;28;20070;-47
2022/05/16 12:24:33;;;;;;;10.55;3.22;;;27.80;92.40;;;;;;5083236;28;20221;-49
2022/05/16 12:27:01;;;;;;;12.05;3.55;;;27.80;92.50;;;;;;5045572;28;20321;-47
2022/05/16 12:29:43;;;;;;;11.98;3.45;;;27.80;92.50;;;;;;5083370;28;20020;-51
2022/05/16 12:32:20;;;;;;;11.55;3.45;;;27.80;92.40;;;;;;5083812;28;20015;-49
2022/05/16 12:34:49;;;;;;;12.30;3.92;;;27.80;92.50;;;;;;5083143;28;20039;-49
2022/05/16 12:37:18;;;;;;;12.75;3.35;;;27.80;92.60;;;;;;5083736;28;20027;-45
2022/05/16 12:40:07;;;;;;;9.82;2.95;;;27.80;92.60;;;;;;5083303;28;20029;-46
2022/05/16 12:43:11;;;;;;;7.63;2.92;;;27.80;92.40;;;;;;5083745;28;20032;-56
2022/05/16 12:46:13;;;;;;;8.35;2.92;;;27.80;92.40;;;;;;5083273;28;20208;-50
2022/05/16 12:49:01;;;;;;;7.57;3.00;;;27.80;92.30;;;;;;5083220;28;20020;-50
2022/05/16 12:51:50;;;;;;;6.18;3.05;;;27.90;92.40;;;;;;5085173;28;20063;-52
2022/05/16 12:54:16;;;;;;;10.20;3.35;;;27.90;92.40;;;;;;5086781;28;20020;-49
2022/05/16 12:56:49;;;;;;;9.55;2.95;;;27.90;92.40;;;;;;5086907;28;20224;-50
2022/05/16 12:59:47;;;;;;;8.20;3.22;;;27.90;92.50;;;;;;5086746;28;20051;-50
2022/05/16 13:02:15;;;;;;;8.77;2.83;;;28.00;92.50;;;;;;5086272;28;20406;-47
2022/05/16 13:04:59;;;;;;;10.05;3.13;;;28.00;92.50;;;;;;5086497;28;20064;-51
2022/05/16 13:07:45;;;;;;;10.88;3.22;;;28.00;92.50;;;;;;5086826;28;20016;-52
2022/05/16 13:10:39;;;;;;;6.72;2.78;;;28.00;92.50;;;;;;5086578;28;20021;-49
2022/05/16 13:13:41;;;;;;;8.05;2.88;;;28.00;92.50;;;;;;5086553;28;20039;-47
2022/05/16 13:16:33;;;;;;;7.05;2.88;;;28.10;92.50;;;;;;5086606;28;20114;-50
2022/05/16 13:19:36;;;;;;;8.80;3.00;;;28.10;92.50;;;;;;5086191;28;20028;-50
2022/05/16 13:22:17;;;;;;;5.90;2.42;;;28.10;92.60;;;;;;5038532;28;20025;-49
2022/05/16 13:24:44;;;;;;;13.63;3.05;;;28.10;92.50;;;;;;5101135;28;20099;-47
2022/05/16 13:30:14;;;;;;;10.25;3.10;;;28.20;92.60;;;;;;5106502;28;20037;-47
2022/05/16 13:32:42;;;;;;;10.57;3.00;;;28.20;92.60;;;;;;5098977;28;20028;-56
2022/05/16 13:35:24;;;;;;;10.68;3.20;;;28.20;92.80;;;;;;5106411;28;20259;-51
2022/05/16 13:37:53;;;;;;;12.85;2.78;;;28.30;92.70;;;;;;5106155;28;20024;-46
2022/05/16 13:40:41;;;;;;;13.55;3.50;;;28.30;92.70;;;;;;5106200;28;20023;-45
2022/05/16 13:43:28;;;;;;;10.63;3.40;;;28.40;92.80;;;;;;5106074;28;20026;-53
2022/05/16 13:46:07;;;;;;;10.32;3.28;;;28.50;92.90;;;;;;5101926;28;20057;-45